sensor_id;sensor_type;location;lat;lon;timestamp;P1;durP1;ratioP1;P2;durP2;ratioP2
78372;SDS011;67656;52.074;4.758;2023-02-28T00:01:46;6.25;;;2.45;;
78372;SDS011;67656;52.074;4.758;2023-02-28T00:06:46;4.20;;;1.67;;
78372;SDS011;67656;52.074;4.758;2023-02-28T00:11:47;5.97;;;2.08;;
78372;SDS011;67656;52.074;4.758;2023-02-28T00:16:47;2.78;;;1.33;;
78372;SDS011;67656;52.074;4.758;2023-02-28T00:21:47;3.23;;;1.20;;
78372;SDS011;67656;52.074;4.758;2023-02-28T00:26:47;2.97;;;1.42;;
78372;SDS011;67656;52.074;4.758;2023-02-28T00:31:48;2.83;;;1.50;;
78372;SDS011;67656;52.074;4.758;2023-02-28T00:36:48;3.27;;;1.10;;
78372;SDS011;67656;52.074;4.758;2023-02-28T00:41:49;4.90;;;1.02;;
78372;SDS011;67656;52.074;4.758;2023-02-28T00:46:49;2.77;;;1.20;;
78372;SDS011;67656;52.074;4.758;2023-02-28T00:51:49;3.50;;;1.10;;
78372;SDS011;67656;52.074;4.758;2023-02-28T00:56:50;6.23;;;1.00;;
78372;SDS011;67656;52.074;4.758;2023-02-28T01:01:50;4.10;;;1.10;;
78372;SDS011;67656;52.074;4.758;2023-02-28T01:06:51;3.73;;;1.00;;
78372;SDS011;67656;52.074;4.758;2023-02-28T01:11:51;1.45;;;0.90;;
78372;SDS011;67656;52.074;4.758;2023-02-28T01:16:51;1.85;;;1.10;;
78372;SDS011;67656;52.074;4.758;2023-02-28T01:21:52;3.47;;;1.40;;
78372;SDS011;67656;52.074;4.758;2023-02-28T01:26:52;4.90;;;1.50;;
78372;SDS011;67656;52.074;4.758;2023-02-28T01:31:55;3.60;;;1.40;;
78372;SDS011;67656;52.074;4.758;2023-02-28T01:36:55;2.50;;;1.10;;
78372;SDS011;67656;52.074;4.758;2023-02-28T01:41:55;4.47;;;1.30;;
78372;SDS011;67656;52.074;4.758;2023-02-28T01:46:55;3.40;;;1.07;;
78372;SDS011;67656;52.074;4.758;2023-02-28T01:51:56;4.53;;;1.20;;
78372;SDS011;67656;52.074;4.758;2023-02-28T01:57:01;2.83;;;1.17;;
78372;SDS011;67656;52.074;4.758;2023-02-28T02:02:09;2.43;;;1.13;;
78372;SDS011;67656;52.074;4.758;2023-02-28T02:07:09;2.40;;;1.10;;
78372;SDS011;67656;52.074;4.758;2023-02-28T02:12:15;2.80;;;1.10;;
78372;SDS011;67656;52.074;4.758;2023-02-28T02:17:37;4.50;;;1.20;;
78372;SDS011;67656;52.074;4.758;2023-02-28T02:28:04;2.40;;;1.10;;
78372;SDS011;67656;52.074;4.758;2023-02-28T02:33:31;3.77;;;1.50;;
78372;SDS011;67656;52.074;4.758;2023-02-28T02:39:02;3.37;;;1.30;;
78372;SDS011;67656;52.074;4.758;2023-02-28T02:49:22;5.10;;;1.47;;
78372;SDS011;67656;52.074;4.758;2023-02-28T02:54:30;3.73;;;1.47;;
78372;SDS011;67656;52.074;4.758;2023-02-28T02:59:35;3.70;;;1.40;;
78372;SDS011;67656;52.074;4.758;2023-02-28T03:04:42;2.73;;;1.20;;
78372;SDS011;67656;52.074;4.758;2023-02-28T03:09:51;5.03;;;1.70;;
78372;SDS011;67656;52.074;4.758;2023-02-28T03:15:03;8.23;;;1.60;;
78372;SDS011;67656;52.074;4.758;2023-02-28T03:20:17;9.07;;;1.70;;
78372;SDS011;67656;52.074;4.758;2023-02-28T03:25:20;5.07;;;1.50;;
78372;SDS011;67656;52.074;4.758;2023-02-28T03:30:50;2.93;;;1.40;;
78372;SDS011;67656;52.074;4.758;2023-02-28T03:35:54;4.80;;;1.40;;
78372;SDS011;67656;52.074;4.758;2023-02-28T03:40:58;3.85;;;1.40;;
78372;SDS011;67656;52.074;4.758;2023-02-28T03:46:06;5.47;;;1.70;;
78372;SDS011;67656;52.074;4.758;2023-02-28T03:56:18;4.50;;;1.40;;
78372;SDS011;67656;52.074;4.758;2023-02-28T04:01:31;4.07;;;1.80;;
78372;SDS011;67656;52.074;4.758;2023-02-28T04:06:37;4.33;;;1.53;;
78372;SDS011;67656;52.074;4.758;2023-02-28T04:11:39;3.17;;;1.67;;
78372;SDS011;67656;52.074;4.758;2023-02-28T04:16:42;4.90;;;1.80;;
78372;SDS011;67656;52.074;4.758;2023-02-28T04:21:43;4.93;;;2.00;;
78372;SDS011;67656;52.074;4.758;2023-02-28T04:26:45;4.77;;;2.17;;
78372;SDS011;67656;52.074;4.758;2023-02-28T04:31:47;4.30;;;2.10;;
78372;SDS011;67656;52.074;4.758;2023-02-28T04:36:48;4.93;;;2.37;;
78372;SDS011;67656;52.074;4.758;2023-02-28T04:41:48;4.65;;;1.88;;
78372;SDS011;67656;52.074;4.758;2023-02-28T04:46:49;6.77;;;2.73;;
78372;SDS011;67656;52.074;4.758;2023-02-28T04:51:49;8.13;;;2.57;;
78372;SDS011;67656;52.074;4.758;2023-02-28T04:56:49;5.93;;;2.37;;
78372;SDS011;67656;52.074;4.758;2023-02-28T05:01:50;9.30;;;2.57;;
78372;SDS011;67656;52.074;4.758;2023-02-28T05:06:50;6.20;;;2.40;;
78372;SDS011;67656;52.074;4.758;2023-02-28T05:11:50;7.90;;;2.60;;
78372;SDS011;67656;52.074;4.758;2023-02-28T05:16:51;5.70;;;2.67;;
78372;SDS011;67656;52.074;4.758;2023-02-28T05:21:54;5.30;;;2.63;;
78372;SDS011;67656;52.074;4.758;2023-02-28T05:26:55;6.45;;;2.85;;
78372;SDS011;67656;52.074;4.758;2023-02-28T05:31:56;6.53;;;2.90;;
78372;SDS011;67656;52.074;4.758;2023-02-28T05:36:56;7.50;;;2.47;;
78372;SDS011;67656;52.074;4.758;2023-02-28T05:41:56;6.73;;;3.10;;
78372;SDS011;67656;52.074;4.758;2023-02-28T05:46:57;9.60;;;3.33;;
78372;SDS011;67656;52.074;4.758;2023-02-28T05:51:57;5.67;;;2.90;;
78372;SDS011;67656;52.074;4.758;2023-02-28T05:56:57;5.80;;;2.88;;
78372;SDS011;67656;52.074;4.758;2023-02-28T06:01:58;6.65;;;2.63;;
78372;SDS011;67656;52.074;4.758;2023-02-28T06:06:58;5.93;;;2.70;;
78372;SDS011;67656;52.074;4.758;2023-02-28T06:11:59;7.40;;;2.97;;
78372;SDS011;67656;52.074;4.758;2023-02-28T06:17:00;5.33;;;2.60;;
78372;SDS011;67656;52.074;4.758;2023-02-28T06:22:00;6.73;;;2.67;;
78372;SDS011;67656;52.074;4.758;2023-02-28T06:27:01;4.43;;;2.15;;
78372;SDS011;67656;52.074;4.758;2023-02-28T06:32:01;6.63;;;2.60;;
78372;SDS011;67656;52.074;4.758;2023-02-28T06:37:01;6.57;;;2.30;;
78372;SDS011;67656;52.074;4.758;2023-02-28T06:42:02;5.40;;;2.70;;
78372;SDS011;67656;52.074;4.758;2023-02-28T06:47:03;5.90;;;1.93;;
78372;SDS011;67656;52.074;4.758;2023-02-28T06:52:05;3.97;;;2.10;;
78372;SDS011;67656;52.074;4.758;2023-02-28T06:57:06;6.80;;;2.53;;
78372;SDS011;67656;52.074;4.758;2023-02-28T07:02:07;4.83;;;2.40;;
78372;SDS011;67656;52.074;4.758;2023-02-28T07:07:08;5.23;;;2.50;;
78372;SDS011;67656;52.074;4.758;2023-02-28T07:12:08;5.30;;;2.70;;
78372;SDS011;67656;52.074;4.758;2023-02-28T07:17:09;6.67;;;2.60;;
78372;SDS011;67656;52.074;4.758;2023-02-28T07:22:10;5.70;;;2.80;;
78372;SDS011;67656;52.074;4.758;2023-02-28T07:27:10;5.33;;;2.13;;
78372;SDS011;67656;52.074;4.758;2023-02-28T07:32:11;5.00;;;2.57;;
78372;SDS011;67656;52.074;4.758;2023-02-28T07:37:11;6.13;;;2.73;;
78372;SDS011;67656;52.074;4.758;2023-02-28T07:42:11;5.33;;;2.63;;
78372;SDS011;67656;52.074;4.758;2023-02-28T07:47:13;4.47;;;2.70;;
78372;SDS011;67656;52.074;4.758;2023-02-28T07:52:13;5.43;;;2.90;;
78372;SDS011;67656;52.074;4.758;2023-02-28T07:57:13;8.48;;;2.90;;
78372;SDS011;67656;52.074;4.758;2023-02-28T08:02:14;6.37;;;3.10;;
78372;SDS011;67656;52.074;4.758;2023-02-28T08:07:16;6.93;;;3.27;;
78372;SDS011;67656;52.074;4.758;2023-02-28T08:12:17;5.90;;;2.90;;
78372;SDS011;67656;52.074;4.758;2023-02-28T08:17:17;7.90;;;3.23;;
78372;SDS011;67656;52.074;4.758;2023-02-28T08:22:18;8.52;;;3.92;;
78372;SDS011;67656;52.074;4.758;2023-02-28T08:27:18;10.63;;;3.73;;
78372;SDS011;67656;52.074;4.758;2023-02-28T08:32:18;10.10;;;3.47;;
78372;SDS011;67656;52.074;4.758;2023-02-28T08:37:19;10.83;;;4.00;;
78372;SDS011;67656;52.074;4.758;2023-02-28T08:42:19;9.23;;;3.90;;
78372;SDS011;67656;52.074;4.758;2023-02-28T08:47:19;8.27;;;3.80;;
78372;SDS011;67656;52.074;4.758;2023-02-28T08:52:20;8.83;;;3.40;;
78372;SDS011;67656;52.074;4.758;2023-02-28T08:57:20;6.00;;;2.80;;
78372;SDS011;67656;52.074;4.758;2023-02-28T09:02:25;6.23;;;2.70;;
78372;SDS011;67656;52.074;4.758;2023-02-28T09:09:45;8.23;;;2.93;;
78372;SDS011;67656;52.074;4.758;2023-02-28T09:14:46;5.60;;;2.53;;
78372;SDS011;67656;52.074;4.758;2023-02-28T09:19:49;4.93;;;2.27;;
78372;SDS011;67656;52.074;4.758;2023-02-28T09:24:50;7.53;;;3.57;;
78372;SDS011;67656;52.074;4.758;2023-02-28T09:29:50;9.87;;;3.27;;
78372;SDS011;67656;52.074;4.758;2023-02-28T09:34:50;8.27;;;2.83;;
78372;SDS011;67656;52.074;4.758;2023-02-28T09:39:51;6.47;;;2.60;;
78372;SDS011;67656;52.074;4.758;2023-02-28T09:44:51;7.17;;;3.00;;
78372;SDS011;67656;52.074;4.758;2023-02-28T09:49:52;8.00;;;3.30;;
78372;SDS011;67656;52.074;4.758;2023-02-28T09:54:53;8.30;;;2.97;;
78372;SDS011;67656;52.074;4.758;2023-02-28T10:05:22;5.43;;;3.30;;
78372;SDS011;67656;52.074;4.758;2023-02-28T10:10:29;7.40;;;2.67;;
78372;SDS011;67656;52.074;4.758;2023-02-28T10:15:51;5.90;;;2.50;;
78372;SDS011;67656;52.074;4.758;2023-02-28T10:20:55;4.73;;;2.37;;
78372;SDS011;67656;52.074;4.758;2023-02-28T10:26:00;7.67;;;2.70;;
78372;SDS011;67656;52.074;4.758;2023-02-28T10:31:14;5.37;;;2.53;;
78372;SDS011;67656;52.074;4.758;2023-02-28T10:36:19;5.73;;;2.23;;
78372;SDS011;67656;52.074;4.758;2023-02-28T10:46:32;3.63;;;1.90;;
78372;SDS011;67656;52.074;4.758;2023-02-28T10:51:34;2.80;;;1.60;;
78372;SDS011;67656;52.074;4.758;2023-02-28T10:56:37;3.20;;;1.90;;
78372;SDS011;67656;52.074;4.758;2023-02-28T11:01:39;3.53;;;1.97;;
78372;SDS011;67656;52.074;4.758;2023-02-28T11:06:43;2.93;;;1.60;;
78372;SDS011;67656;52.074;4.758;2023-02-28T11:11:45;2.63;;;1.80;;
78372;SDS011;67656;52.074;4.758;2023-02-28T11:16:47;2.83;;;1.73;;
78372;SDS011;67656;52.074;4.758;2023-02-28T11:21:59;2.23;;;1.40;;
78372;SDS011;67656;52.074;4.758;2023-02-28T11:27:12;3.10;;;1.77;;
78372;SDS011;67656;52.074;4.758;2023-02-28T11:32:32;2.47;;;1.47;;
78372;SDS011;67656;52.074;4.758;2023-02-28T11:37:32;4.23;;;1.50;;
78372;SDS011;67656;52.074;4.758;2023-02-28T12:04:25;4.50;;;1.60;;
78372;SDS011;67656;52.074;4.758;2023-02-28T12:25:34;1.90;;;1.33;;
78372;SDS011;67656;52.074;4.758;2023-02-28T12:36:19;2.93;;;1.67;;
78372;SDS011;67656;52.074;4.758;2023-02-28T12:41:29;2.17;;;1.50;;
78372;SDS011;67656;52.074;4.758;2023-02-28T12:46:45;3.70;;;1.60;;
78372;SDS011;67656;52.074;4.758;2023-02-28T12:51:49;2.93;;;1.37;;
78372;SDS011;67656;52.074;4.758;2023-02-28T13:13:04;2.70;;;1.47;;
78372;SDS011;67656;52.074;4.758;2023-02-28T13:18:04;2.97;;;1.63;;
78372;SDS011;67656;52.074;4.758;2023-02-28T13:23:05;2.47;;;1.43;;
78372;SDS011;67656;52.074;4.758;2023-02-28T13:28:56;5.10;;;1.80;;
78372;SDS011;67656;52.074;4.758;2023-02-28T13:34:05;3.80;;;1.90;;
78372;SDS011;67656;52.074;4.758;2023-02-28T13:44:33;3.00;;;1.50;;
78372;SDS011;67656;52.074;4.758;2023-02-28T13:50:15;2.13;;;1.50;;
78372;SDS011;67656;52.074;4.758;2023-02-28T13:55:31;2.13;;;1.30;;
78372;SDS011;67656;52.074;4.758;2023-02-28T14:01:02;1.83;;;1.10;;
78372;SDS011;67656;52.074;4.758;2023-02-28T14:06:18;3.00;;;1.30;;
78372;SDS011;67656;52.074;4.758;2023-02-28T14:11:26;2.50;;;1.37;;
78372;SDS011;67656;52.074;4.758;2023-02-28T14:22:04;3.20;;;1.40;;
78372;SDS011;67656;52.074;4.758;2023-02-28T14:27:21;2.23;;;1.20;;
78372;SDS011;67656;52.074;4.758;2023-02-28T14:38:18;3.75;;;1.60;;
78372;SDS011;67656;52.074;4.758;2023-02-28T14:43:37;1.50;;;1.07;;
78372;SDS011;67656;52.074;4.758;2023-02-28T14:48:49;3.73;;;1.20;;
78372;SDS011;67656;52.074;4.758;2023-02-28T14:53:56;2.43;;;1.50;;
78372;SDS011;67656;52.074;4.758;2023-02-28T14:58:58;2.57;;;1.40;;
78372;SDS011;67656;52.074;4.758;2023-02-28T15:04:00;1.97;;;1.20;;
78372;SDS011;67656;52.074;4.758;2023-02-28T15:09:16;2.95;;;1.27;;
78372;SDS011;67656;52.074;4.758;2023-02-28T15:19:29;5.00;;;1.60;;
78372;SDS011;67656;52.074;4.758;2023-02-28T15:24:42;2.57;;;1.60;;
78372;SDS011;67656;52.074;4.758;2023-02-28T15:29:47;3.57;;;2.10;;
78372;SDS011;67656;52.074;4.758;2023-02-28T15:34:50;4.30;;;1.98;;
78372;SDS011;67656;52.074;4.758;2023-02-28T15:39:50;4.37;;;2.20;;
78372;SDS011;67656;52.074;4.758;2023-02-28T15:44:52;4.53;;;2.43;;
78372;SDS011;67656;52.074;4.758;2023-02-28T15:49:59;3.37;;;2.17;;
78372;SDS011;67656;52.074;4.758;2023-02-28T15:55:12;4.73;;;2.60;;
78372;SDS011;67656;52.074;4.758;2023-02-28T16:00:21;9.40;;;3.43;;
78372;SDS011;67656;52.074;4.758;2023-02-28T16:10:28;7.38;;;2.78;;
78372;SDS011;67656;52.074;4.758;2023-02-28T16:15:30;5.07;;;2.77;;
78372;SDS011;67656;52.074;4.758;2023-02-28T16:20:35;4.70;;;2.60;;
78372;SDS011;67656;52.074;4.758;2023-02-28T16:25:36;5.40;;;2.93;;
78372;SDS011;67656;52.074;4.758;2023-02-28T16:30:38;6.73;;;2.50;;
78372;SDS011;67656;52.074;4.758;2023-02-28T16:35:39;6.50;;;3.33;;
78372;SDS011;67656;52.074;4.758;2023-02-28T16:40:39;7.03;;;3.30;;
78372;SDS011;67656;52.074;4.758;2023-02-28T16:45:40;5.03;;;2.87;;
78372;SDS011;67656;52.074;4.758;2023-02-28T16:50:41;4.87;;;2.50;;
78372;SDS011;67656;52.074;4.758;2023-02-28T16:55:44;6.60;;;3.00;;
78372;SDS011;67656;52.074;4.758;2023-02-28T17:00:48;12.70;;;6.67;;
78372;SDS011;67656;52.074;4.758;2023-02-28T17:05:49;9.00;;;5.27;;
78372;SDS011;67656;52.074;4.758;2023-02-28T17:10:49;7.00;;;4.33;;
78372;SDS011;67656;52.074;4.758;2023-02-28T17:15:49;6.17;;;2.93;;
78372;SDS011;67656;52.074;4.758;2023-02-28T17:20:50;5.60;;;3.07;;
78372;SDS011;67656;52.074;4.758;2023-02-28T17:25:50;4.77;;;2.50;;
78372;SDS011;67656;52.074;4.758;2023-02-28T17:30:51;6.13;;;2.70;;
78372;SDS011;67656;52.074;4.758;2023-02-28T17:35:54;4.03;;;2.77;;
78372;SDS011;67656;52.074;4.758;2023-02-28T17:40:57;6.27;;;2.97;;
78372;SDS011;67656;52.074;4.758;2023-02-28T17:45:58;6.33;;;3.47;;
78372;SDS011;67656;52.074;4.758;2023-02-28T17:50:58;5.80;;;3.00;;
78372;SDS011;67656;52.074;4.758;2023-02-28T17:55:59;7.73;;;3.23;;
78372;SDS011;67656;52.074;4.758;2023-02-28T18:00:59;6.80;;;3.53;;
78372;SDS011;67656;52.074;4.758;2023-02-28T18:06:00;6.10;;;3.20;;
78372;SDS011;67656;52.074;4.758;2023-02-28T18:11:03;6.07;;;3.13;;
78372;SDS011;67656;52.074;4.758;2023-02-28T18:16:03;7.90;;;4.00;;
78372;SDS011;67656;52.074;4.758;2023-02-28T18:21:05;7.30;;;3.50;;
78372;SDS011;67656;52.074;4.758;2023-02-28T18:26:08;7.97;;;4.10;;
78372;SDS011;67656;52.074;4.758;2023-02-28T18:31:12;9.93;;;3.77;;
78372;SDS011;67656;52.074;4.758;2023-02-28T18:36:20;7.60;;;3.40;;
78372;SDS011;67656;52.074;4.758;2023-02-28T18:41:30;10.07;;;4.77;;
78372;SDS011;67656;52.074;4.758;2023-02-28T18:46:30;11.03;;;5.33;;
78372;SDS011;67656;52.074;4.758;2023-02-28T18:51:31;9.97;;;5.23;;
78372;SDS011;67656;52.074;4.758;2023-02-28T18:56:31;20.03;;;8.50;;
78372;SDS011;67656;52.074;4.758;2023-02-28T19:06:42;10.27;;;5.03;;
78372;SDS011;67656;52.074;4.758;2023-02-28T19:11:48;12.53;;;5.90;;
78372;SDS011;67656;52.074;4.758;2023-02-28T19:16:56;15.98;;;6.38;;
78372;SDS011;67656;52.074;4.758;2023-02-28T19:22:00;32.10;;;10.37;;
78372;SDS011;67656;52.074;4.758;2023-02-28T19:27:00;19.43;;;6.80;;
78372;SDS011;67656;52.074;4.758;2023-02-28T19:32:01;13.57;;;6.28;;
78372;SDS011;67656;52.074;4.758;2023-02-28T19:37:01;13.50;;;5.53;;
78372;SDS011;67656;52.074;4.758;2023-02-28T19:42:01;11.30;;;5.33;;
78372;SDS011;67656;52.074;4.758;2023-02-28T19:47:02;11.23;;;4.80;;
78372;SDS011;67656;52.074;4.758;2023-02-28T19:52:02;34.43;;;14.67;;
78372;SDS011;67656;52.074;4.758;2023-02-28T19:57:03;13.13;;;5.90;;
78372;SDS011;67656;52.074;4.758;2023-02-28T20:02:03;16.73;;;6.87;;
78372;SDS011;67656;52.074;4.758;2023-02-28T20:07:05;17.27;;;6.70;;
78372;SDS011;67656;52.074;4.758;2023-02-28T20:12:05;15.60;;;6.23;;
78372;SDS011;67656;52.074;4.758;2023-02-28T20:17:06;12.93;;;5.37;;
78372;SDS011;67656;52.074;4.758;2023-02-28T20:22:06;15.97;;;6.37;;
78372;SDS011;67656;52.074;4.758;2023-02-28T20:27:06;17.43;;;6.47;;
78372;SDS011;67656;52.074;4.758;2023-02-28T20:32:07;12.23;;;5.73;;
78372;SDS011;67656;52.074;4.758;2023-02-28T20:37:07;13.97;;;5.90;;
78372;SDS011;67656;52.074;4.758;2023-02-28T20:42:08;13.27;;;6.10;;
78372;SDS011;67656;52.074;4.758;2023-02-28T20:47:08;13.07;;;6.10;;
78372;SDS011;67656;52.074;4.758;2023-02-28T20:52:09;10.93;;;5.53;;
78372;SDS011;67656;52.074;4.758;2023-02-28T20:57:09;16.67;;;6.32;;
78372;SDS011;67656;52.074;4.758;2023-02-28T21:02:10;14.90;;;6.20;;
78372;SDS011;67656;52.074;4.758;2023-02-28T21:07:14;17.03;;;6.57;;
78372;SDS011;67656;52.074;4.758;2023-02-28T21:12:15;15.10;;;5.20;;
78372;SDS011;67656;52.074;4.758;2023-02-28T21:17:15;12.80;;;5.47;;
78372;SDS011;67656;52.074;4.758;2023-02-28T21:22:15;12.93;;;5.47;;
78372;SDS011;67656;52.074;4.758;2023-02-28T21:27:16;13.98;;;5.55;;
78372;SDS011;67656;52.074;4.758;2023-02-28T21:32:16;14.97;;;5.97;;
78372;SDS011;67656;52.074;4.758;2023-02-28T21:37:16;12.60;;;5.27;;
78372;SDS011;67656;52.074;4.758;2023-02-28T21:42:17;12.67;;;5.80;;
78372;SDS011;67656;52.074;4.758;2023-02-28T21:47:17;11.70;;;5.10;;
78372;SDS011;67656;52.074;4.758;2023-02-28T21:52:17;13.13;;;5.00;;
78372;SDS011;67656;52.074;4.758;2023-02-28T21:57:18;14.60;;;6.13;;
78372;SDS011;67656;52.074;4.758;2023-02-28T22:02:18;15.17;;;6.07;;
78372;SDS011;67656;52.074;4.758;2023-02-28T22:07:18;15.83;;;6.00;;
78372;SDS011;67656;52.074;4.758;2023-02-28T22:12:18;14.63;;;6.40;;
78372;SDS011;67656;52.074;4.758;2023-02-28T22:17:19;15.18;;;6.90;;
78372;SDS011;67656;52.074;4.758;2023-02-28T22:22:19;17.70;;;6.17;;
78372;SDS011;67656;52.074;4.758;2023-02-28T22:27:19;13.73;;;6.33;;
78372;SDS011;67656;52.074;4.758;2023-02-28T22:32:20;15.93;;;6.43;;
78372;SDS011;67656;52.074;4.758;2023-02-28T22:37:20;15.70;;;6.23;;
78372;SDS011;67656;52.074;4.758;2023-02-28T22:42:20;16.33;;;6.97;;
78372;SDS011;67656;52.074;4.758;2023-02-28T22:47:21;15.77;;;6.23;;
78372;SDS011;67656;52.074;4.758;2023-02-28T22:52:21;15.70;;;6.40;;
78372;SDS011;67656;52.074;4.758;2023-02-28T22:57:21;20.93;;;6.53;;
78372;SDS011;67656;52.074;4.758;2023-02-28T23:02:22;18.92;;;6.45;;
78372;SDS011;67656;52.074;4.758;2023-02-28T23:07:22;18.47;;;5.97;;
78372;SDS011;67656;52.074;4.758;2023-02-28T23:12:22;16.87;;;6.87;;
78372;SDS011;67656;52.074;4.758;2023-02-28T23:17:23;16.33;;;6.55;;
78372;SDS011;67656;52.074;4.758;2023-02-28T23:22:23;14.97;;;6.10;;
78372;SDS011;67656;52.074;4.758;2023-02-28T23:27:23;19.20;;;5.93;;
78372;SDS011;67656;52.074;4.758;2023-02-28T23:32:24;19.07;;;6.20;;
78372;SDS011;67656;52.074;4.758;2023-02-28T23:37:24;19.17;;;6.90;;
78372;SDS011;67656;52.074;4.758;2023-02-28T23:42:24;20.60;;;7.03;;
78372;SDS011;67656;52.074;4.758;2023-02-28T23:47:25;21.37;;;7.47;;
78372;SDS011;67656;52.074;4.758;2023-02-28T23:52:25;18.80;;;6.77;;
78372;SDS011;67656;52.074;4.758;2023-02-28T23:57:26;18.50;;;7.10;;
